Time;durP1;ratioP1;P1;durP2;ratioP2;P2;SDS_P1;SDS_P2;PMS_P1;PMS_P2;Temp;Humidity;BMP_temperature;BMP_pressure;BME280_temperature;BME280_humidity;BME280_pressure;Samples;Min_cycle;Max_cycle;Signal;HPM_P1;HPM_P2
2023/05/29 00:00:07;;;;;;;12.10;2.97;;;9.50;76.60;;;;;;5033645;28;20048;-67
2023/05/29 00:02:34;;;;;;;13.45;3.13;;;9.50;77.00;;;;;;5037817;28;20064;-67
2023/05/29 00:05:02;;;;;;;11.02;2.67;;;9.50;76.90;;;;;;5047290;28;20037;-67
2023/05/29 00:07:29;;;;;;;14.00;2.58;;;9.50;77.00;;;;;;5044677;28;20047;-67
2023/05/29 00:09:55;;;;;;;9.95;2.22;;;9.40;77.20;;;;;;5050735;28;20041;-67
2023/05/29 00:12:21;;;;;;;16.15;3.28;;;9.40;77.30;;;;;;5048043;28;20048;-68
2023/05/29 00:14:48;;;;;;;11.57;2.42;;;9.40;77.20;;;;;;5035974;28;20447;-67
2023/05/29 00:17:15;;;;;;;13.82;3.03;;;9.40;77.20;;;;;;5047345;28;20451;-66
2023/05/29 00:19:41;;;;;;;25.77;4.80;;;9.40;77.80;;;;;;5032495;28;20057;-68
2023/05/29 00:22:06;;;;;;;10.05;2.30;;;9.30;77.80;;;;;;5048410;28;20448;-67
2023/05/29 00:24:32;;;;;;;9.52;2.38;;;9.40;77.80;;;;;;5041706;28;20429;-67
2023/05/29 00:26:57;;;;;;;14.15;2.60;;;9.40;77.80;;;;;;5048684;28;20452;-68
2023/05/29 00:29:23;;;;;;;13.70;2.83;;;9.30;77.90;;;;;;5049049;28;20041;-67
2023/05/29 00:31:49;;;;;;;12.55;2.17;;;9.40;77.90;;;;;;5045454;28;20037;-67
2023/05/29 00:34:14;;;;;;;9.13;3.42;;;9.30;77.80;;;;;;5030242;28;20037;-67
2023/05/29 00:36:40;;;;;;;15.10;2.85;;;9.20;77.70;;;;;;5048591;28;20378;-67
2023/05/29 00:39:05;;;;;;;11.95;2.63;;;9.10;77.70;;;;;;5030999;28;20033;-67
2023/05/29 00:41:31;;;;;;;13.02;2.80;;;9.10;78.00;;;;;;5034389;28;20225;-66
2023/05/29 00:43:57;;;;;;;8.60;2.17;;;9.10;78.10;;;;;;5036903;28;20522;-66
2023/05/29 00:46:22;;;;;;;13.13;2.60;;;9.10;78.20;;;;;;5041556;28;20653;-67
2023/05/29 00:48:49;;;;;;;12.30;1.83;;;8.90;78.00;;;;;;5035915;28;20457;-67
2023/05/29 00:51:15;;;;;;;11.13;2.05;;;8.90;78.50;;;;;;5019264;28;20130;-67
2023/05/29 00:53:43;;;;;;;12.73;3.20;;;8.80;78.30;;;;;;5034561;28;20033;-67
2023/05/29 00:56:09;;;;;;;10.48;2.45;;;8.70;78.50;;;;;;5039189;28;20425;-67
2023/05/29 00:58:36;;;;;;;11.80;2.72;;;8.70;78.80;;;;;;5031359;28;20563;-67
2023/05/29 01:01:03;;;;;;;9.10;2.35;;;8.60;78.90;;;;;;5037578;28;20037;-67
2023/05/29 01:03:29;;;;;;;16.38;3.80;;;8.50;78.80;;;;;;5036771;28;20041;-66
2023/05/29 01:05:54;;;;;;;10.77;2.30;;;8.40;78.80;;;;;;5031445;28;20666;-67
2023/05/29 01:08:20;;;;;;;10.98;2.25;;;8.40;79.00;;;;;;5021953;28;20041;-67
2023/05/29 01:10:47;;;;;;;9.55;2.65;;;8.40;79.30;;;;;;5035535;28;20048;-67
2023/05/29 01:13:26;;;;;;;9.02;2.08;;;8.30;79.50;;;;;;5044594;28;20584;-66
2023/05/29 01:16:01;;;;;;;8.68;2.17;;;8.30;79.90;;;;;;5042949;28;20092;-67
2023/05/29 01:18:26;;;;;;;19.95;3.35;;;8.20;79.60;;;;;;5040849;28;20071;-67
2023/05/29 01:21:11;;;;;;;12.80;2.65;;;8.10;79.60;;;;;;5045601;28;20040;-67
2023/05/29 01:23:56;;;;;;;6.93;1.70;;;8.10;80.20;;;;;;5044153;28;20064;-67
2023/05/29 01:26:41;;;;;;;9.65;2.17;;;8.00;80.00;;;;;;5025334;28;20116;-67
2023/05/29 01:29:07;;;;;;;10.25;2.25;;;8.00;81.00;;;;;;5043177;28;20055;-67
2023/05/29 01:31:34;;;;;;;12.57;2.50;;;8.00;80.80;;;;;;5031014;28;20530;-67
2023/05/29 01:34:00;;;;;;;7.57;1.90;;;7.90;80.50;;;;;;5047911;28;20063;-69
2023/05/29 01:36:26;;;;;;;14.93;2.55;;;7.90;80.60;;;;;;5038198;28;20041;-67
2023/05/29 01:38:54;;;;;;;10.32;2.15;;;7.90;81.20;;;;;;5025715;28;20041;-66
2023/05/29 01:41:21;;;;;;;11.60;1.85;;;7.80;81.20;;;;;;5032771;28;20075;-67
2023/05/29 01:43:47;;;;;;;12.38;2.20;;;7.80;81.00;;;;;;5040065;28;20049;-67
2023/05/29 01:46:14;;;;;;;13.20;2.35;;;7.70;81.10;;;;;;5031360;28;20201;-67
2023/05/29 01:48:41;;;;;;;10.63;2.50;;;7.70;81.20;;;;;;5020151;28;20374;-67
2023/05/29 01:51:07;;;;;;;10.63;2.05;;;7.60;81.20;;;;;;5023308;28;20052;-67
2023/05/29 01:53:33;;;;;;;12.70;2.72;;;7.60;81.40;;;;;;5025486;28;20118;-67
2023/05/29 01:55:58;;;;;;;14.70;2.50;;;7.50;81.60;;;;;;5035231;28;20642;-67
2023/05/29 01:58:26;;;;;;;8.43;2.80;;;7.60;81.70;;;;;;5062239;28;20173;-68
2023/05/29 02:00:52;;;;;;;10.98;2.90;;;7.50;81.80;;;;;;5037900;28;20438;-68
2023/05/29 02:03:17;;;;;;;11.98;2.72;;;7.50;82.10;;;;;;5036882;28;20052;-67
2023/05/29 02:05:43;;;;;;;11.90;2.50;;;7.50;82.40;;;;;;5041386;28;20029;-67
2023/05/29 02:08:09;;;;;;;12.13;2.58;;;7.60;82.40;;;;;;5037924;28;20055;-67
2023/05/29 02:10:34;;;;;;;14.13;2.20;;;7.60;82.20;;;;;;5047072;28;20041;-68
2023/05/29 02:13:00;;;;;;;11.73;2.45;;;7.60;82.20;;;;;;5043144;28;20112;-67
2023/05/29 02:15:25;;;;;;;15.00;2.55;;;7.60;82.20;;;;;;5043617;28;20044;-68
2023/05/29 02:17:51;;;;;;;10.02;2.50;;;7.60;82.40;;;;;;5043887;28;20045;-68
2023/05/29 02:20:17;;;;;;;10.35;2.80;;;7.50;82.20;;;;;;5046297;28;20519;-67
2023/05/29 02:22:43;;;;;;;10.32;2.30;;;7.50;82.80;;;;;;5031823;28;20814;-67
2023/05/29 02:25:08;;;;;;;19.05;2.40;;;7.50;82.80;;;;;;5047468;28;20128;-67
2023/05/29 02:27:34;;;;;;;12.40;2.83;;;7.40;82.60;;;;;;5043450;28;20045;-67
2023/05/29 02:30:00;;;;;;;13.73;2.90;;;7.40;82.40;;;;;;5043998;28;20028;-67
2023/05/29 02:32:27;;;;;;;10.80;2.20;;;7.30;82.80;;;;;;5044924;28;20140;-66
2023/05/29 02:34:53;;;;;;;10.95;2.20;;;7.20;83.00;;;;;;5044870;28;20116;-67
2023/05/29 02:37:19;;;;;;;13.82;2.78;;;7.20;82.90;;;;;;5032012;28;20123;-67
2023/05/29 02:39:44;;;;;;;19.58;3.38;;;7.10;82.90;;;;;;5043150;28;20457;-67
2023/05/29 02:42:10;;;;;;;13.00;2.35;;;7.10;83.20;;;;;;5043422;28;20508;-68
2023/05/29 02:44:35;;;;;;;13.82;2.47;;;7.10;83.30;;;;;;5028644;28;20116;-67
2023/05/29 02:47:01;;;;;;;15.68;2.92;;;7.10;83.60;;;;;;5045326;28;20095;-68
2023/05/29 02:49:27;;;;;;;14.52;2.63;;;7.10;84.10;;;;;;5039513;28;20040;-67
2023/05/29 02:51:56;;;;;;;13.18;2.55;;;7.10;83.50;;;;;;5034189;28;20040;-66
2023/05/29 02:54:23;;;;;;;12.07;2.47;;;7.00;83.30;;;;;;5032438;28;20045;-67
2023/05/29 02:56:49;;;;;;;10.57;2.40;;;7.00;84.00;;;;;;5037455;28;20059;-67
2023/05/29 02:59:14;;;;;;;7.15;1.88;;;7.00;84.40;;;;;;5038974;28;20057;-68
2023/05/29 03:01:40;;;;;;;20.70;3.20;;;7.00;84.10;;;;;;5052717;28;20384;-67
2023/05/29 03:04:05;;;;;;;14.30;2.75;;;6.90;84.00;;;;;;5037393;28;20032;-67
2023/05/29 03:06:32;;;;;;;12.13;2.38;;;6.90;84.10;;;;;;5032968;28;20037;-67
2023/05/29 03:08:59;;;;;;;10.98;2.70;;;6.90;83.90;;;;;;5038073;28;20087;-67
2023/05/29 03:11:25;;;;;;;13.10;2.28;;;6.90;84.50;;;;;;5047340;28;20029;-67
2023/05/29 03:13:50;;;;;;;12.38;2.17;;;6.90;85.00;;;;;;5034741;28;20056;-67
2023/05/29 03:16:16;;;;;;;14.77;2.63;;;6.80;84.50;;;;;;5033654;28;20143;-67
2023/05/29 03:18:42;;;;;;;13.07;2.72;;;6.80;84.50;;;;;;5033355;28;20091;-67
2023/05/29 03:21:07;;;;;;;16.02;2.97;;;6.80;84.90;;;;;;5026573;28;20108;-67
2023/05/29 03:23:33;;;;;;;12.77;2.58;;;6.70;84.70;;;;;;5050093;28;20472;-67
2023/05/29 03:25:59;;;;;;;13.98;2.53;;;6.70;85.20;;;;;;5036441;28;20040;-68
2023/05/29 03:28:24;;;;;;;10.32;2.42;;;6.60;84.80;;;;;;5049305;28;20029;-67
2023/05/29 03:30:51;;;;;;;10.02;2.53;;;6.70;85.40;;;;;;5039246;28;20162;-68
2023/05/29 03:33:17;;;;;;;10.00;2.70;;;6.70;85.00;;;;;;5030820;28;20416;-67
2023/05/29 03:35:42;;;;;;;11.95;2.30;;;6.60;84.90;;;;;;5047178;28;20040;-68
2023/05/29 03:38:08;;;;;;;17.63;2.83;;;6.60;85.30;;;;;;5046064;28;20041;-67
2023/05/29 03:40:33;;;;;;;13.65;2.70;;;6.70;85.20;;;;;;5045213;28;20124;-67
2023/05/29 03:42:59;;;;;;;8.65;2.28;;;6.70;86.10;;;;;;5042069;28;20046;-68
2023/05/29 03:45:25;;;;;;;10.57;2.45;;;6.70;85.50;;;;;;5039934;28;20509;-67
2023/05/29 03:47:51;;;;;;;9.82;2.33;;;6.70;85.50;;;;;;5045527;28;20049;-67
2023/05/29 03:50:16;;;;;;;11.50;2.22;;;6.70;85.40;;;;;;5027880;28;20028;-69
2023/05/29 03:52:42;;;;;;;14.65;2.40;;;6.70;85.40;;;;;;5033792;28;20052;-71
2023/05/29 03:55:12;;;;;;;21.63;3.20;;;6.70;85.60;;;;;;5038990;28;20036;-69
2023/05/29 03:57:40;;;;;;;24.52;3.22;;;6.70;86.00;;;;;;5041998;28;20048;-69
2023/05/29 04:00:10;;;;;;;12.65;2.85;;;6.70;85.80;;;;;;5025185;28;20513;-69
2023/05/29 04:02:37;;;;;;;11.55;2.42;;;6.80;86.40;;;;;;5039407;28;20037;-70
2023/05/29 04:05:04;;;;;;;11.27;2.47;;;6.80;86.90;;;;;;5042443;28;20551;-69
2023/05/29 04:07:29;;;;;;;9.65;2.00;;;6.90;86.50;;;;;;5039070;28;20056;-69
2023/05/29 04:09:55;;;;;;;9.68;2.67;;;6.90;86.20;;;;;;5029053;28;20119;-68
2023/05/29 04:12:20;;;;;;;15.50;2.30;;;6.90;86.10;;;;;;5039134;28;20152;-69
2023/05/29 04:14:46;;;;;;;14.68;3.25;;;6.90;86.10;;;;;;5033093;28;20107;-65
2023/05/29 04:17:11;;;;;;;13.98;2.95;;;7.00;86.30;;;;;;5039096;28;20518;-69
2023/05/29 04:19:37;;;;;;;11.20;2.20;;;7.00;86.60;;;;;;5024112;28;20464;-69
2023/05/29 04:22:02;;;;;;;11.20;2.20;;;7.10;86.80;;;;;;5039827;28;22112;-69
2023/05/29 04:24:28;;;;;;;10.82;2.10;;;7.10;86.60;;;;;;5042668;28;20068;-69
2023/05/29 04:26:53;;;;;;;10.50;2.22;;;7.20;86.60;;;;;;5023379;28;20119;-69
2023/05/29 04:29:19;;;;;;;11.00;2.42;;;7.30;87.00;;;;;;5027764;28;20042;-69
2023/05/29 04:31:45;;;;;;;12.93;2.75;;;7.30;86.80;;;;;;5038226;28;20053;-70
2023/05/29 04:34:10;;;;;;;11.95;2.90;;;7.40;86.70;;;;;;5038498;28;20045;-70
2023/05/29 04:36:39;;;;;;;12.63;2.45;;;7.50;86.80;;;;;;5035541;28;20037;-69
2023/05/29 04:39:06;;;;;;;8.50;2.60;;;7.50;86.80;;;;;;5029761;28;20389;-69
2023/05/29 04:41:32;;;;;;;13.60;3.10;;;7.60;86.70;;;;;;5033823;28;20045;-69
2023/05/29 04:43:58;;;;;;;11.07;2.22;;;7.70;86.90;;;;;;5038507;28;20037;-70
2023/05/29 04:46:24;;;;;;;18.95;2.85;;;7.80;86.60;;;;;;5039067;28;20045;-69
2023/05/29 04:48:54;;;;;;;10.68;2.25;;;7.90;86.50;;;;;;5035691;28;20037;-68
2023/05/29 04:51:23;;;;;;;16.30;2.67;;;8.10;86.40;;;;;;5038595;28;20044;-70
2023/05/29 04:53:51;;;;;;;15.25;4.20;;;8.20;86.40;;;;;;5038399;28;20040;-68
2023/05/29 04:56:18;;;;;;;9.55;2.60;;;8.30;86.10;;;;;;5038359;28;20041;-69
2023/05/29 04:58:44;;;;;;;9.90;2.42;;;8.40;85.90;;;;;;5038224;28;20045;-69
2023/05/29 05:01:14;;;;;;;12.95;2.72;;;8.50;85.60;;;;;;5038115;28;20093;-69
2023/05/29 05:03:40;;;;;;;13.00;2.65;;;8.60;85.40;;;;;;5035296;28;20156;-69
2023/05/29 05:06:07;;;;;;;9.93;2.58;;;8.80;85.20;;;;;;5034096;28;20489;-69
2023/05/29 05:08:33;;;;;;;11.85;3.22;;;8.90;85.00;;;;;;5036265;28;20049;-69
2023/05/29 05:11:00;;;;;;;12.27;3.05;;;9.00;84.60;;;;;;5045784;28;20047;-70
2023/05/29 05:13:25;;;;;;;9.27;2.80;;;9.20;84.50;;;;;;5043014;28;20473;-70
2023/05/29 05:15:51;;;;;;;9.80;2.42;;;9.40;84.40;;;;;;5048598;28;20040;-70
2023/05/29 05:18:17;;;;;;;14.57;2.90;;;9.50;84.30;;;;;;5020448;28;20198;-70
2023/05/29 05:20:42;;;;;;;12.35;2.85;;;9.60;84.10;;;;;;5023660;28;20595;-70
2023/05/29 05:23:10;;;;;;;11.55;3.22;;;9.80;83.70;;;;;;5039954;28;20138;-69
2023/05/29 05:25:36;;;;;;;10.27;2.38;;;10.00;83.60;;;;;;5034543;28;20099;-69
2023/05/29 05:28:05;;;;;;;13.57;3.45;;;10.10;83.30;;;;;;5032440;28;20104;-70
2023/05/29 05:30:31;;;;;;;13.02;2.83;;;10.30;83.10;;;;;;5047026;28;20120;-70
2023/05/29 05:32:57;;;;;;;12.57;2.47;;;10.50;82.60;;;;;;5023968;28;20048;-71
2023/05/29 05:35:23;;;;;;;17.17;2.65;;;10.60;82.20;;;;;;5033611;28;20033;-70
2023/05/29 05:37:49;;;;;;;12.52;2.35;;;10.70;81.90;;;;;;5034163;28;22620;-70
2023/05/29 05:40:15;;;;;;;14.40;2.78;;;10.80;81.40;;;;;;5035906;28;20045;-69
2023/05/29 05:42:40;;;;;;;13.60;2.42;;;10.90;81.10;;;;;;5035728;28;20049;-68
2023/05/29 05:45:07;;;;;;;7.63;2.60;;;11.10;80.60;;;;;;5036867;28;20032;-71
2023/05/29 05:47:33;;;;;;;10.57;2.45;;;11.20;79.90;;;;;;5039053;28;20084;-69
2023/05/29 05:49:59;;;;;;;10.18;2.42;;;11.30;80.10;;;;;;5040497;28;20044;-70
2023/05/29 05:52:25;;;;;;;14.63;3.15;;;11.50;78.70;;;;;;5024901;28;20045;-69
2023/05/29 05:54:51;;;;;;;9.05;2.00;;;11.70;78.20;;;;;;5033679;28;20179;-69
2023/05/29 05:57:17;;;;;;;11.77;2.60;;;11.80;77.00;;;;;;5036124;28;20131;-70
2023/05/29 05:59:42;;;;;;;10.60;2.03;;;12.00;75.70;;;;;;5037819;28;20052;-70
2023/05/29 06:02:08;;;;;;;11.25;2.72;;;12.20;75.20;;;;;;5031464;28;20063;-70
2023/05/29 06:04:34;;;;;;;12.00;2.53;;;12.30;74.20;;;;;;5036373;28;20040;-69
2023/05/29 06:06:59;;;;;;;12.30;2.25;;;12.40;73.40;;;;;;5033628;28;20110;-70
2023/05/29 06:09:25;;;;;;;12.23;3.05;;;12.50;72.20;;;;;;5038353;28;20045;-69
2023/05/29 06:11:51;;;;;;;16.95;2.63;;;12.70;71.80;;;;;;5037678;28;20121;-69
2023/05/29 06:14:16;;;;;;;14.27;2.58;;;12.80;71.20;;;;;;5034418;28;20033;-69
2023/05/29 06:16:42;;;;;;;14.85;2.47;;;13.00;70.50;;;;;;5056416;28;20065;-70
2023/05/29 06:19:08;;;;;;;12.30;2.85;;;13.10;69.50;;;;;;5031575;28;20074;-70
2023/05/29 06:21:34;;;;;;;10.45;2.80;;;13.20;69.20;;;;;;5044113;28;20484;-71
2023/05/29 06:24:00;;;;;;;12.50;2.70;;;13.30;68.10;;;;;;5039130;28;20043;-70
2023/05/29 06:26:26;;;;;;;11.88;2.83;;;13.30;67.70;;;;;;5045065;28;20033;-70
2023/05/29 06:28:52;;;;;;;9.85;2.45;;;13.40;67.30;;;;;;5041979;28;20426;-70
2023/05/29 06:31:18;;;;;;;9.82;2.92;;;13.60;66.90;;;;;;5043096;28;20045;-70
2023/05/29 06:33:44;;;;;;;14.30;2.72;;;13.70;66.30;;;;;;5036208;28;20140;-66
2023/05/29 06:36:10;;;;;;;15.18;2.63;;;13.90;65.90;;;;;;5041080;28;20033;-66
2023/05/29 06:38:36;;;;;;;8.80;2.33;;;14.00;64.70;;;;;;5038668;28;20029;-67
2023/05/29 06:41:01;;;;;;;9.15;2.25;;;14.20;64.80;;;;;;5037962;28;20412;-68
2023/05/29 06:43:28;;;;;;;17.90;3.03;;;14.40;64.00;;;;;;5045751;28;20041;-67
2023/05/29 06:45:54;;;;;;;13.10;2.53;;;14.40;63.60;;;;;;5046075;28;20485;-67
2023/05/29 06:48:20;;;;;;;12.05;2.75;;;14.50;63.30;;;;;;5042186;28;20047;-68
2023/05/29 06:50:47;;;;;;;13.77;3.50;;;14.60;62.80;;;;;;5038524;28;20037;-67
2023/05/29 06:53:13;;;;;;;9.98;2.40;;;14.40;62.10;;;;;;5040288;28;20173;-67
2023/05/29 06:55:40;;;;;;;9.57;2.78;;;14.60;62.40;;;;;;5041933;28;20057;-67
2023/05/29 06:58:06;;;;;;;8.95;2.45;;;14.80;61.50;;;;;;5039242;28;20049;-67
2023/05/29 07:00:31;;;;;;;12.63;2.83;;;14.80;61.20;;;;;;5038436;28;20037;-67
2023/05/29 07:02:57;;;;;;;14.40;2.83;;;15.00;60.80;;;;;;5046441;28;20120;-68
2023/05/29 07:05:23;;;;;;;12.13;3.15;;;15.10;60.40;;;;;;5040317;28;20033;-67
2023/05/29 07:07:48;;;;;;;13.60;3.15;;;15.20;59.60;;;;;;5036808;28;20037;-67
2023/05/29 07:10:14;;;;;;;10.10;2.88;;;15.40;59.20;;;;;;5044757;28;20033;-66
2023/05/29 07:12:39;;;;;;;10.90;2.90;;;15.50;58.80;;;;;;5027977;28;20231;-68
2023/05/29 07:15:06;;;;;;;10.27;2.67;;;15.50;58.70;;;;;;5043969;28;20045;-68
2023/05/29 07:17:31;;;;;;;13.90;3.20;;;15.60;58.50;;;;;;5043131;28;20353;-67
2023/05/29 07:19:57;;;;;;;12.73;3.00;;;15.60;57.90;;;;;;5045529;28;20091;-68
2023/05/29 07:22:22;;;;;;;10.10;2.13;;;15.60;57.30;;;;;;5039531;28;20079;-67
2023/05/29 07:24:48;;;;;;;10.88;2.70;;;15.60;56.90;;;;;;5029063;28;20044;-68
2023/05/29 07:27:13;;;;;;;14.63;2.90;;;15.60;57.10;;;;;;5046385;28;20053;-68
2023/05/29 07:29:39;;;;;;;10.63;2.53;;;15.80;57.00;;;;;;5045710;28;20041;-68
2023/05/29 07:32:05;;;;;;;13.88;2.67;;;15.90;56.80;;;;;;5045271;28;20048;-68
2023/05/29 07:34:31;;;;;;;10.60;2.70;;;16.00;56.20;;;;;;5047592;28;20428;-68
2023/05/29 07:36:58;;;;;;;12.43;3.05;;;16.40;56.10;;;;;;5045240;28;20055;-68
2023/05/29 07:39:24;;;;;;;13.48;2.85;;;16.40;55.80;;;;;;5035971;28;20085;-68
2023/05/29 07:41:50;;;;;;;16.33;3.17;;;16.50;55.40;;;;;;5029951;28;20406;-68
2023/05/29 07:44:15;;;;;;;9.13;2.40;;;16.30;54.60;;;;;;5044009;28;20916;-67
2023/05/29 07:46:41;;;;;;;10.35;2.63;;;16.40;54.80;;;;;;5044100;28;20129;-68
2023/05/29 07:49:06;;;;;;;10.57;3.00;;;16.60;54.50;;;;;;5039357;28;20086;-70
2023/05/29 07:51:32;;;;;;;18.95;3.45;;;16.50;53.90;;;;;;5045965;28;20048;-67
2023/05/29 07:53:58;;;;;;;11.07;2.42;;;16.50;53.30;;;;;;5043302;28;20037;-68
2023/05/29 07:56:25;;;;;;;17.05;2.78;;;16.70;53.00;;;;;;5038838;28;20042;-69
2023/05/29 07:58:53;;;;;;;9.73;2.53;;;16.70;53.10;;;;;;5048958;28;20068;-68
2023/05/29 08:01:19;;;;;;;9.75;2.95;;;16.70;53.20;;;;;;5030857;28;20575;-69
2023/05/29 08:03:44;;;;;;;10.88;2.60;;;16.90;53.00;;;;;;5044361;28;20075;-69
2023/05/29 08:06:11;;;;;;;11.98;2.58;;;17.10;52.90;;;;;;5046238;28;20032;-68
2023/05/29 08:08:36;;;;;;;11.43;2.80;;;17.10;52.90;;;;;;5046161;28;20493;-69
2023/05/29 08:11:02;;;;;;;11.07;2.95;;;17.40;52.40;;;;;;5043236;28;20128;-69
2023/05/29 08:13:30;;;;;;;14.27;2.60;;;17.40;52.00;;;;;;5046309;28;20041;-69
2023/05/29 08:15:56;;;;;;;11.18;2.90;;;17.70;51.50;;;;;;5039167;28;20045;-70
2023/05/29 08:18:26;;;;;;;11.57;2.88;;;17.80;51.50;;;;;;5042749;28;20112;-69
2023/05/29 08:20:52;;;;;;;11.00;2.70;;;18.00;50.70;;;;;;5041830;28;20076;-68
2023/05/29 08:23:18;;;;;;;13.05;3.10;;;18.10;51.00;;;;;;5046244;28;20103;-68
2023/05/29 08:25:44;;;;;;;13.30;2.83;;;18.60;50.50;;;;;;5047231;28;20098;-69
2023/05/29 08:28:10;;;;;;;11.73;2.83;;;18.80;49.40;;;;;;5045420;28;20076;-69
2023/05/29 08:30:37;;;;;;;12.20;3.22;;;19.00;48.30;;;;;;5043342;28;20540;-68
2023/05/29 08:33:03;;;;;;;10.30;2.65;;;19.40;47.80;;;;;;5032193;28;20239;-68
2023/05/29 08:35:28;;;;;;;9.05;2.40;;;19.50;47.10;;;;;;5031750;28;20091;-66
2023/05/29 08:37:54;;;;;;;10.15;2.70;;;19.60;46.30;;;;;;5035636;28;20083;-68
2023/05/29 08:40:20;;;;;;;9.85;2.70;;;19.60;46.00;;;;;;5050377;28;20048;-68
2023/05/29 08:42:50;;;;;;;10.13;2.20;;;19.80;45.40;;;;;;5049481;28;20094;-69
2023/05/29 08:45:21;;;;;;;7.28;2.17;;;20.00;44.30;;;;;;5046524;28;20162;-68
2023/05/29 08:47:49;;;;;;;;;;;20.10;44.10;;;;;;5048972;28;20195;-69
2023/05/29 08:50:16;;;;;;;17.08;3.20;;;20.20;41.30;;;;;;5051503;28;20309;-67
2023/05/29 08:52:42;;;;;;;13.45;2.50;;;20.00;44.80;;;;;;5027175;28;20107;-68
2023/05/29 08:55:08;;;;;;;8.35;2.95;;;20.00;43.90;;;;;;5048641;28;20438;-66
2023/05/29 08:57:36;;;;;;;14.15;3.38;;;20.10;43.30;;;;;;5047020;28;20037;-67
2023/05/29 09:00:08;;;;;;;12.82;2.95;;;20.10;43.20;;;;;;5032158;28;20118;-66
2023/05/29 09:02:35;;;;;;;13.80;2.40;;;20.10;42.70;;;;;;5046603;28;20037;-67
2023/05/29 09:05:01;;;;;;;12.02;2.20;;;20.00;42.50;;;;;;5049382;28;20056;-68
2023/05/29 09:07:27;;;;;;;9.88;2.70;;;19.90;42.10;;;;;;5043514;28;20033;-68
2023/05/29 09:09:53;;;;;;;13.77;2.67;;;19.90;42.20;;;;;;5051225;28;20143;-68
2023/05/29 09:12:18;;;;;;;14.40;2.50;;;19.80;42.30;;;;;;5051036;28;20056;-69
2023/05/29 09:14:45;;;;;;;10.60;2.33;;;19.70;42.60;;;;;;5045466;28;20041;-67
2023/05/29 09:17:12;;;;;;;9.88;2.40;;;19.70;42.70;;;;;;5046228;28;20773;-67
2023/05/29 09:19:40;;;;;;;12.32;2.65;;;19.60;42.90;;;;;;5042316;28;20396;-67
2023/05/29 09:22:07;;;;;;;9.73;2.40;;;19.60;43.20;;;;;;5047655;28;20602;-67
2023/05/29 09:24:36;;;;;;;11.75;2.70;;;19.80;42.70;;;;;;5048072;28;20040;-67
2023/05/29 09:27:04;;;;;;;11.05;2.90;;;20.00;42.00;;;;;;5037124;28;20052;-68
2023/05/29 09:29:33;;;;;;;9.85;2.28;;;20.00;41.40;;;;;;5034990;28;20028;-67
2023/05/29 09:32:00;;;;;;;9.50;3.00;;;20.30;40.50;;;;;;5045964;28;20044;-67
2023/05/29 09:34:29;;;;;;;8.82;2.30;;;20.40;40.80;;;;;;5030765;28;20358;-67
2023/05/29 09:37:08;;;;;;;17.23;2.78;;;20.90;40.60;;;;;;5048259;28;20051;-66
2023/05/29 09:39:51;;;;;;;12.27;2.90;;;21.00;39.80;;;;;;5039126;28;20072;-67
2023/05/29 09:42:17;;;;;;;12.50;2.97;;;21.30;38.70;;;;;;5047485;28;20143;-68
2023/05/29 09:44:53;;;;;;;13.45;2.42;;;21.30;38.90;;;;;;5043437;28;20103;-67
2023/05/29 09:47:19;;;;;;;7.97;2.35;;;21.30;38.50;;;;;;5047723;28;20103;-68
2023/05/29 09:49:46;;;;;;;10.10;2.55;;;21.30;38.40;;;;;;5047486;28;20406;-68
2023/05/29 09:52:15;;;;;;;7.82;2.22;;;21.30;38.10;;;;;;5044558;28;20041;-68
2023/05/29 09:54:48;;;;;;;9.43;2.40;;;21.30;37.80;;;;;;5043865;28;20049;-67
2023/05/29 09:57:17;;;;;;;7.07;2.20;;;21.40;37.70;;;;;;5043448;28;20123;-67
2023/05/29 09:59:45;;;;;;;11.23;2.53;;;21.60;37.70;;;;;;5048320;28;20048;-67
2023/05/29 10:02:13;;;;;;;11.43;2.53;;;21.70;37.10;;;;;;5045548;28;20508;-67
2023/05/29 10:04:40;;;;;;;8.05;2.50;;;21.90;36.90;;;;;;5039636;28;20112;-67
2023/05/29 10:07:16;;;;;;;9.27;2.30;;;22.00;36.80;;;;;;5032278;28;20114;-67
2023/05/29 10:09:45;;;;;;;10.23;1.98;;;22.20;36.60;;;;;;5027254;28;20056;-68
2023/05/29 10:12:12;;;;;;;8.63;2.60;;;22.40;36.10;;;;;;5022565;28;20045;-68
2023/05/29 10:14:42;;;;;;;10.05;2.70;;;22.60;35.40;;;;;;5033049;28;20045;-68
2023/05/29 10:17:10;;;;;;;11.32;2.78;;;22.90;35.20;;;;;;5039769;28;20100;-68
2023/05/29 10:19:38;;;;;;;9.05;2.63;;;23.00;34.70;;;;;;5044471;28;20052;-68
2023/05/29 10:22:05;;;;;;;14.40;2.55;;;23.10;34.50;;;;;;5026397;28;20040;-68
2023/05/29 10:24:36;;;;;;;7.90;1.92;;;23.50;34.50;;;;;;5042627;28;20039;-68
2023/05/29 10:27:03;;;;;;;7.80;2.20;;;23.90;33.70;;;;;;5041048;28;20063;-67
2023/05/29 10:30:07;;;;;;;7.72;2.50;;;23.70;33.90;;;;;;5039936;28;20042;-68
2023/05/29 10:33:09;;;;;;;11.15;2.72;;;23.90;32.40;;;;;;5039800;28;20035;-68
2023/05/29 10:35:47;;;;;;;9.60;2.47;;;23.70;31.60;;;;;;5044652;28;20037;-69
2023/05/29 10:38:18;;;;;;;11.82;2.83;;;24.20;32.60;;;;;;5042825;28;20045;-69
2023/05/29 10:40:44;;;;;;;13.63;3.13;;;24.10;31.80;;;;;;5027791;28;20036;-68
2023/05/29 10:43:34;;;;;;;10.68;2.55;;;23.80;33.30;;;;;;5035561;28;20041;-67
2023/05/29 10:46:01;;;;;;;12.67;2.47;;;23.80;32.90;;;;;;5043002;28;20087;-67
2023/05/29 10:48:29;;;;;;;10.57;3.15;;;23.60;33.60;;;;;;5041720;28;20355;-67
2023/05/29 10:50:55;;;;;;;7.13;2.50;;;23.60;33.40;;;;;;5047336;28;20037;-68
2023/05/29 10:53:26;;;;;;;11.30;2.90;;;23.60;33.00;;;;;;5020136;28;20041;-67
2023/05/29 10:55:52;;;;;;;9.95;2.17;;;23.10;33.00;;;;;;5043211;28;20037;-68
2023/05/29 10:58:19;;;;;;;8.32;2.17;;;22.80;34.30;;;;;;5044429;28;20487;-67
2023/05/29 11:00:46;;;;;;;10.05;2.70;;;22.40;34.40;;;;;;5047521;28;20369;-68
2023/05/29 11:03:15;;;;;;;9.77;2.58;;;22.10;34.60;;;;;;5041275;28;20124;-67
2023/05/29 11:06:05;;;;;;;11.20;2.75;;;21.70;34.80;;;;;;5040787;28;20098;-70
2023/05/29 11:08:47;;;;;;;10.18;3.05;;;21.50;34.60;;;;;;5041985;28;20040;-66
2023/05/29 11:11:29;;;;;;;10.32;2.60;;;21.20;36.50;;;;;;5041241;28;20397;-67
2023/05/29 11:13:56;;;;;;;14.10;2.88;;;21.10;36.80;;;;;;5037930;28;20044;-66
2023/05/29 11:16:30;;;;;;;12.15;2.40;;;20.90;37.30;;;;;;5045439;28;20052;-67
2023/05/29 11:18:58;;;;;;;9.75;2.53;;;20.90;37.40;;;;;;5037765;28;20037;-67
2023/05/29 11:21:53;;;;;;;12.02;2.40;;;20.90;36.90;;;;;;5038312;28;20055;-67
2023/05/29 11:24:24;;;;;;;8.82;2.58;;;20.80;36.20;;;;;;5040021;28;20044;-67
2023/05/29 11:26:53;;;;;;;8.98;2.53;;;20.80;37.30;;;;;;5045546;28;20186;-68
2023/05/29 11:29:22;;;;;;;8.25;2.38;;;20.80;37.40;;;;;;5043005;28;20059;-68
2023/05/29 11:31:53;;;;;;;13.98;3.60;;;20.60;37.60;;;;;;5047069;28;20388;-68
2023/05/29 11:34:21;;;;;;;7.32;2.38;;;20.70;37.30;;;;;;5050584;28;20341;-69
2023/05/29 11:36:48;;;;;;;9.65;2.95;;;21.00;37.00;;;;;;5049179;28;20363;-67
2023/05/29 11:39:14;;;;;;;12.32;2.50;;;20.90;36.70;;;;;;5042147;28;20083;-68
2023/05/29 11:41:40;;;;;;;7.13;2.05;;;20.90;36.50;;;;;;5029179;28;20069;-68
2023/05/29 11:44:05;;;;;;;12.32;2.08;;;20.80;36.60;;;;;;5044373;28;20041;-68
2023/05/29 11:46:32;;;;;;;8.48;2.35;;;20.60;37.00;;;;;;5046926;28;20084;-70
2023/05/29 11:48:58;;;;;;;7.13;2.30;;;20.80;36.70;;;;;;5042173;28;20041;-68
2023/05/29 11:51:24;;;;;;;9.65;2.30;;;20.80;36.40;;;;;;5034772;28;20036;-68
2023/05/29 11:53:53;;;;;;;8.55;2.70;;;20.80;35.70;;;;;;5054608;28;20468;-68
2023/05/29 11:56:18;;;;;;;11.05;2.30;;;20.80;35.50;;;;;;5052890;28;20047;-68
2023/05/29 11:58:45;;;;;;;9.80;2.05;;;20.70;36.00;;;;;;5046292;28;20041;-67
2023/05/29 12:01:11;;;;;;;10.20;2.60;;;20.80;36.60;;;;;;5042605;28;20092;-68
2023/05/29 12:03:41;;;;;;;9.40;2.45;;;20.60;36.60;;;;;;5028939;28;20037;-67
2023/05/29 12:06:08;;;;;;;;;;;20.80;36.00;;;;;;5032791;28;20069;-69
2023/05/29 12:08:33;;;;;;;7.82;2.17;;;20.80;36.60;;;;;;5024971;28;20244;-70
2023/05/29 12:10:59;;;;;;;9.73;2.50;;;21.00;36.60;;;;;;5020583;28;20049;-69
2023/05/29 12:13:25;;;;;;;13.65;3.33;;;21.30;36.30;;;;;;5022017;28;20044;-68
2023/05/29 12:15:56;;;;;;;9.93;2.20;;;21.80;35.60;;;;;;5036747;28;20056;-74
2023/05/29 12:18:21;;;;;;;9.95;2.65;;;22.40;34.50;;;;;;5043776;28;20084;-70
2023/05/29 12:20:47;;;;;;;9.40;2.50;;;22.80;33.40;;;;;;5043782;28;20072;-68
2023/05/29 12:23:13;;;;;;;7.97;2.08;;;23.10;32.70;;;;;;5044599;28;20323;-69
2023/05/29 12:25:38;;;;;;;9.35;2.28;;;23.20;32.30;;;;;;5047837;28;20048;-70
2023/05/29 12:28:04;;;;;;;8.95;2.05;;;23.30;32.20;;;;;;5049837;28;20060;-68
2023/05/29 12:30:30;;;;;;;8.70;2.00;;;23.30;31.90;;;;;;5048295;28;20052;-69
2023/05/29 12:32:57;;;;;;;11.38;2.65;;;23.40;31.90;;;;;;5048299;28;20033;-67
2023/05/29 12:35:27;;;;;;;9.93;2.67;;;23.60;31.90;;;;;;5033194;28;20815;-72
2023/05/29 12:38:05;;;;;;;9.38;2.50;;;24.50;31.80;;;;;;5034836;28;20108;-68
2023/05/29 12:40:34;;;;;;;7.40;2.15;;;25.90;30.30;;;;;;5038568;28;20052;-68
2023/05/29 12:43:05;;;;;;;5.90;2.03;;;27.10;29.00;;;;;;5037015;28;20159;-68
2023/05/29 12:45:31;;;;;;;;;;;28.00;27.60;;;;;;5042543;28;20473;-68